Kyshtym, Russia
Current Conditions -  °F | °C
As of 6:30 AM on Sunday 21 Dec 2014 (Local Time) from USCC Reporting Station
Smoke Smoke  
Wind Chill:   Ceiling: Unl
Heat Index: 14°   Visibility: 1.5mi
Dew Point: 10°   Wind: 7mph
Humidity: 86%   Direction: 180°S
Pressure: 29.77"   Gusts: NA
Location:  55.7°N, 60.56°E
Report Text: USCC 210030Z 18003MPS 2500 BR FU FEW070 M10/M12 Q1008 09000060TEMPO 1100 BR FU RMK QFE736
Loading
Personal Weather Stations






























Interactive Weather Map New forecast layout! Learn more

10-Day Weather Forecast

Advertisements
Track Severe Weather on mobile